Time;durP1;ratioP1;P1;durP2;ratioP2;P2;SDS_P1;SDS_P2;PMS_P1;PMS_P2;Temp;Humidity;BMP_temperature;BMP_pressure;BME280_temperature;BME280_humidity;BME280_pressure;Samples;Min_cycle;Max_cycle;Signal;HPM_P1;HPM_P2
2023/06/28 00:01:36;;;;;;;1999.90;999.90;;;;;;;16.22;100.00;97958.38;4995782;28;20101;-75
2023/06/28 00:04:02;;;;;;;1999.90;999.90;;;;;;;16.17;100.00;97943.91;4978783;28;20386;-75
2023/06/28 00:06:27;;;;;;;1999.90;999.90;;;;;;;16.20;100.00;97952.34;4995173;28;20105;-75
2023/06/28 00:08:53;;;;;;;1999.90;999.90;;;;;;;16.16;100.00;97951.41;4995888;28;20030;-75
2023/06/28 00:11:18;;;;;;;1999.90;999.90;;;;;;;16.25;100.00;97963.22;4995107;28;20027;-75
2023/06/28 00:13:43;;;;;;;1999.90;999.90;;;;;;;16.14;100.00;97948.16;4977334;28;20045;-75
2023/06/28 00:16:09;;;;;;;1999.90;999.90;;;;;;;16.20;100.00;97946.00;4994494;28;20038;-77
2023/06/28 00:18:35;;;;;;;1999.90;999.90;;;;;;;16.19;100.00;97936.13;4994571;28;20038;-75
2023/06/28 00:21:02;;;;;;;1999.90;999.90;;;;;;;16.17;100.00;97930.94;4994418;28;20471;-75
2023/06/28 00:23:28;;;;;;;1999.90;999.90;;;;;;;16.17;100.00;97925.41;4994128;28;20030;-75
2023/06/28 00:25:53;;;;;;;1999.90;999.90;;;;;;;16.16;100.00;97925.75;4994587;28;20026;-75
2023/06/28 00:28:18;;;;;;;1999.90;999.90;;;;;;;16.16;100.00;97918.28;4994207;28;20103;-75
2023/06/28 00:30:43;;;;;;;1999.90;999.90;;;;;;;16.17;100.00;97917.13;4976480;28;20053;-77
2023/06/28 00:33:09;;;;;;;1999.90;999.90;;;;;;;16.13;100.00;97913.44;4994010;28;20069;-78
2023/06/28 00:35:34;;;;;;;1999.90;999.90;;;;;;;16.12;100.00;97909.06;4993962;28;20065;-76
2023/06/28 00:37:59;;;;;;;1999.90;999.90;;;;;;;16.12;100.00;97900.78;4993878;28;20781;-75
2023/06/28 00:40:25;;;;;;;1999.90;999.90;;;;;;;16.17;100.00;97906.09;4993871;28;20468;-75
2023/06/28 00:42:50;;;;;;;1999.90;999.90;;;;;;;16.19;100.00;97914.06;5000026;28;20040;-76
2023/06/28 00:45:15;;;;;;;1999.90;999.90;;;;;;;16.22;100.00;97905.94;4995261;28;20033;-74
2023/06/28 00:47:43;;;;;;;1999.90;999.90;;;;;;;16.25;100.00;97904.44;4993886;28;20471;-74
2023/06/28 00:50:09;;;;;;;1999.90;999.90;;;;;;;16.21;100.00;97900.72;4993652;28;20026;-74
2023/06/28 00:52:35;;;;;;;1999.90;999.90;;;;;;;16.10;100.00;97885.69;4993730;28;20554;-75
2023/06/28 00:55:00;;;;;;;1999.90;999.90;;;;;;;16.16;100.00;97898.16;4994247;28;20396;-74
2023/06/28 00:57:26;;;;;;;1999.90;999.90;;;;;;;16.17;100.00;97903.34;4993525;28;20034;-75
2023/06/28 00:59:53;;;;;;;1999.90;999.90;;;;;;;16.14;100.00;97897.66;4993915;28;20033;-75
2023/06/28 01:02:19;;;;;;;1999.90;999.90;;;;;;;16.14;100.00;97912.28;4974990;28;20519;-75
2023/06/28 01:04:44;;;;;;;1999.90;999.90;;;;;;;16.13;100.00;97913.44;4974205;28;20122;-76
2023/06/28 01:07:11;;;;;;;1999.90;999.90;;;;;;;16.13;100.00;97909.88;4974040;28;20109;-76
2023/06/28 01:09:38;;;;;;;1999.90;999.90;;;;;;;16.05;100.00;97903.25;4973686;28;20042;-78
2023/06/28 01:12:04;;;;;;;1999.90;999.90;;;;;;;16.10;100.00;97916.06;4974124;28;20523;-75
2023/06/28 01:14:29;;;;;;;1999.90;999.90;;;;;;;16.10;100.00;97913.28;4974044;28;20034;-75
2023/06/28 01:16:55;;;;;;;1999.90;999.90;;;;;;;16.03;100.00;97900.00;4973773;28;20519;-75
2023/06/28 01:19:25;;;;;;;1999.90;999.90;;;;;;;16.12;100.00;97911.00;4973848;28;20149;-74
2023/06/28 01:21:56;;;;;;;1999.90;999.90;;;;;;;16.11;100.00;97918.47;4973679;28;20015;-75
2023/06/28 01:24:22;;;;;;;1999.90;999.90;;;;;;;16.16;100.00;97928.53;4974065;28;20406;-74
2023/06/28 01:26:52;;;;;;;1999.90;999.90;;;;;;;16.13;100.00;97918.97;4973764;28;20030;-74
2023/06/28 01:29:21;;;;;;;1999.90;999.90;;;;;;;16.10;100.00;97914.06;4973614;28;20422;-76
2023/06/28 01:31:52;;;;;;;1999.90;999.90;;;;;;;16.16;100.00;97917.47;4973598;28;20030;-74
2023/06/28 01:34:18;;;;;;;1999.90;999.90;;;;;;;16.19;100.00;97911.31;4973591;28;20505;-75
2023/06/28 01:36:44;;;;;;;1999.90;999.90;;;;;;;16.18;100.00;97906.91;4973331;28;20050;-75
2023/06/28 01:39:10;;;;;;;1999.90;999.90;;;;;;;16.10;100.00;97916.84;4973573;28;20027;-74
2023/06/28 01:41:36;;;;;;;1999.90;999.90;;;;;;;16.03;100.00;97897.25;4955972;28;20049;-75
2023/06/28 01:44:02;;;;;;;1999.90;999.90;;;;;;;16.15;100.00;97904.81;4973369;28;20487;-76
2023/06/28 01:46:27;;;;;;;1999.90;999.90;;;;;;;16.06;100.00;97902.09;4974049;28;20030;-74
2023/06/28 01:48:53;;;;;;;1999.90;999.90;;;;;;;16.03;100.00;97900.81;4977348;28;20035;-76
2023/06/28 01:51:19;;;;;;;1999.90;999.90;;;;;;;16.13;100.00;97907.09;4986438;28;20029;-75
2023/06/28 01:53:45;;;;;;;1999.90;999.90;;;;;;;16.12;100.00;97900.78;4993071;28;20033;-75
2023/06/28 01:56:10;;;;;;;1999.90;999.90;;;;;;;16.11;100.00;97895.56;4974625;28;20383;-76
2023/06/28 01:58:36;;;;;;;1999.90;999.90;;;;;;;16.11;100.00;97890.06;4992627;28;20034;-76
2023/06/28 02:01:01;;;;;;;1999.90;999.90;;;;;;;16.08;100.00;97900.63;4992489;28;20462;-75
2023/06/28 02:03:26;;;;;;;1999.90;999.90;;;;;;;16.14;100.00;97887.44;4992245;28;20034;-74
2023/06/28 02:05:51;;;;;;;1999.90;999.90;;;;;;;15.97;100.00;97871.00;4992358;28;20034;-75
2023/06/28 02:08:17;;;;;;;1999.90;999.90;;;;;;;16.02;100.00;97888.16;4992479;28;20030;-76
2023/06/28 02:10:44;;;;;;;1999.90;999.90;;;;;;;16.04;100.00;97893.34;4992131;28;20030;-76
2023/06/28 02:13:09;;;;;;;1999.90;999.90;;;;;;;15.95;100.00;97885.09;4992329;28;20027;-77
2023/06/28 02:15:35;;;;;;;1999.90;999.90;;;;;;;15.91;100.00;97888.88;4992187;28;20023;-75
2023/06/28 02:18:01;;;;;;;1999.90;999.90;;;;;;;15.95;100.00;97904.41;4994504;28;20038;-75
2023/06/28 02:20:26;;;;;;;1999.90;999.90;;;;;;;15.94;100.00;97904.75;4992882;28;20038;-75
2023/06/28 02:22:52;;;;;;;1999.90;999.90;;;;;;;15.94;100.00;97902.00;4991946;28;20026;-75
2023/06/28 02:25:17;;;;;;;1999.90;999.90;;;;;;;15.91;100.00;97899.91;4992438;28;20022;-75
2023/06/28 02:27:42;;;;;;;1999.90;999.90;;;;;;;15.89;100.00;97885.63;4996594;28;20030;-76
2023/06/28 02:30:08;;;;;;;1999.90;999.90;;;;;;;15.84;100.00;97894.91;4992785;28;20030;-74
2023/06/28 02:32:33;;;;;;;1999.90;999.90;;;;;;;15.90;100.00;97890.00;4991668;28;20030;-75
2023/06/28 02:34:58;;;;;;;1999.90;999.90;;;;;;;15.91;100.00;97888.88;4991855;28;20048;-76
2023/06/28 02:37:24;;;;;;;1999.90;999.90;;;;;;;15.89;100.00;97889.19;4974184;28;20484;-75
2023/06/28 02:39:50;;;;;;;1999.90;999.90;;;;;;;16.00;100.00;97876.66;4991695;28;20030;-76
2023/06/28 02:42:15;;;;;;;1999.90;999.90;;;;;;;15.99;100.00;97872.28;4991589;28;20032;-74
2023/06/28 02:44:40;;;;;;;1999.90;999.90;;;;;;;16.02;100.00;97868.84;4991678;28;20038;-76
2023/06/28 02:47:06;;;;;;;1999.90;999.90;;;;;;;16.05;100.00;97870.94;4991533;28;20451;-75
2023/06/28 02:49:31;;;;;;;1999.90;999.90;;;;;;;16.05;100.00;97870.94;4991648;28;20542;-74
2023/06/28 02:51:56;;;;;;;1999.90;999.90;;;;;;;16.14;100.00;97870.06;4974129;28;20607;-74
2023/06/28 02:54:22;;;;;;;1999.90;999.90;;;;;;;16.20;100.00;97886.09;4974420;28;20026;-75
2023/06/28 02:56:47;;;;;;;1999.90;999.90;;;;;;;16.17;100.00;97877.69;4991781;28;20035;-76
2023/06/28 02:59:12;;;;;;;1999.90;999.90;;;;;;;16.20;100.00;97888.06;4991614;28;20041;-76
2023/06/28 03:01:38;;;;;;;1999.90;999.90;;;;;;;16.19;100.00;97889.22;4991343;28;20034;-73
2023/06/28 03:04:03;;;;;;;1999.90;999.90;;;;;;;16.17;100.00;97883.19;4974331;28;20467;-76
2023/06/28 03:06:29;;;;;;;1999.90;999.90;;;;;;;16.10;100.00;97880.19;4976009;28;20557;-75
2023/06/28 03:08:55;;;;;;;1999.90;999.90;;;;;;;16.13;100.00;97887.78;4991591;28;20416;-75
2023/06/28 03:11:20;;;;;;;1999.90;999.90;;;;;;;16.19;100.00;97900.25;4991487;28;20029;-74
2023/06/28 03:13:45;;;;;;;1999.90;999.90;;;;;;;16.17;100.00;97903.34;4991420;28;20034;-79
2023/06/28 03:16:11;;;;;;;1999.90;999.90;;;;;;;16.13;100.00;97904.34;4981152;28;20042;-74
2023/06/28 03:18:36;;;;;;;1999.90;999.90;;;;;;;16.28;100.00;97909.28;4986128;28;20039;-79
2023/06/28 03:21:01;;;;;;;1999.90;999.90;;;;;;;16.38;100.00;97900.63;5003000;28;20030;-75
2023/06/28 03:23:27;;;;;;;1999.90;999.90;;;;;;;16.38;100.00;97908.91;4990843;28;20033;-75
2023/06/28 03:25:52;;;;;;;1999.90;999.90;;;;;;;16.25;100.00;97915.47;4991298;28;20438;-75
2023/06/28 03:28:18;;;;;;;1999.90;999.90;;;;;;;16.24;100.00;97909.16;4973409;28;20211;-75
2023/06/28 03:30:44;;;;;;;1999.90;999.90;;;;;;;16.25;100.00;97905.25;4990302;28;20045;-76
2023/06/28 03:33:09;;;;;;;1999.90;999.90;;;;;;;16.22;100.00;97897.66;4971315;28;20034;-75
2023/06/28 03:35:34;;;;;;;1999.90;999.90;;;;;;;16.28;100.00;97885.25;4971329;28;20027;-75
2023/06/28 03:37:59;;;;;;;1999.90;999.90;;;;;;;16.29;100.00;97883.31;4971060;28;20081;-75
2023/06/28 03:40:25;;;;;;;1999.90;999.90;;;;;;;16.35;100.00;97893.03;4971207;28;20138;-76
2023/06/28 03:42:50;;;;;;;1999.90;999.90;;;;;;;16.29;100.00;97899.88;4971147;28;20034;-77
2023/06/28 03:45:16;;;;;;;1999.90;999.90;;;;;;;16.29;100.00;97895.16;4971057;28;20027;-77
2023/06/28 03:47:41;;;;;;;1999.90;999.90;;;;;;;16.40;100.00;97906.63;4971361;28;20026;-76
2023/06/28 03:50:07;;;;;;;1999.90;999.90;;;;;;;16.37;100.00;97897.06;4970886;28;20387;-77
2023/06/28 03:52:33;;;;;;;1999.90;999.90;;;;;;;16.47;100.00;97906.91;4971203;28;20082;-75
2023/06/28 03:54:58;;;;;;;1999.90;999.90;;;;;;;16.48;100.00;97894.69;4971520;28;20038;-76
2023/06/28 03:57:23;;;;;;;1999.90;999.90;;;;;;;16.48;100.00;97901.03;4971292;28;20038;-77
2023/06/28 03:59:49;;;;;;;1999.90;999.90;;;;;;;16.49;100.00;97907.38;4971235;28;20137;-75
2023/06/28 04:02:14;;;;;;;1999.90;999.90;;;;;;;16.49;100.00;97899.09;4971137;28;20486;-76
2023/06/28 04:04:40;;;;;;;1999.90;999.90;;;;;;;16.53;100.00;97895.34;4969868;28;20035;-75
2023/06/28 04:07:05;;;;;;;1999.90;999.90;;;;;;;16.54;100.00;97905.25;4990350;28;20034;-76
2023/06/28 04:09:31;;;;;;;1999.90;999.90;;;;;;;16.48;100.00;97909.31;5011292;28;20084;-76
2023/06/28 04:11:56;;;;;;;1999.90;999.90;;;;;;;16.54;100.00;97902.50;4993053;28;20494;-76
2023/06/28 04:14:23;;;;;;;1999.90;999.90;;;;;;;16.59;100.00;97915.31;4994005;28;20065;-75
2023/06/28 04:16:49;;;;;;;1999.90;999.90;;;;;;;16.63;100.00;97919.03;4994281;28;20049;-75
2023/06/28 04:19:14;;;;;;;1999.90;999.90;;;;;;;16.60;100.00;97919.69;4991338;28;20113;-74
2023/06/28 04:21:39;;;;;;;1999.90;999.90;;;;;;;16.62;100.00;97922.91;4994088;28;20464;-75
2023/06/28 04:24:05;;;;;;;1999.90;999.90;;;;;;;16.60;100.00;97927.97;4976719;28;20112;-75
2023/06/28 04:26:31;;;;;;;1999.90;999.90;;;;;;;16.67;100.00;97944.00;4995410;28;20026;-75
2023/06/28 04:28:56;;;;;;;1999.90;999.90;;;;;;;16.62;100.00;97947.78;4995578;28;20031;-76
2023/06/28 04:31:21;;;;;;;1999.90;999.90;;;;;;;16.62;100.00;97935.91;4993665;28;20398;-76
2023/06/28 04:33:47;;;;;;;1999.90;999.90;;;;;;;16.60;100.00;97930.75;4993667;28;20104;-75
2023/06/28 04:36:12;;;;;;;1999.90;999.90;;;;;;;16.66;100.00;97932.16;4993618;28;20109;-75
2023/06/28 04:38:39;;;;;;;1999.90;999.90;;;;;;;16.69;100.00;97936.19;4993829;28;20034;-75
2023/06/28 04:41:04;;;;;;;1999.90;999.90;;;;;;;16.59;100.00;97927.16;4993572;28;20093;-74
2023/06/28 04:43:39;;;;;;;1999.90;999.90;;;;;;;16.63;100.00;97932.84;4976305;28;20468;-75
2023/06/28 04:46:05;;;;;;;1999.90;999.90;;;;;;;16.65;100.00;97947.09;4976399;28;20027;-74
2023/06/28 04:48:30;;;;;;;1999.90;999.90;;;;;;;16.67;100.00;97961.38;4993637;28;20030;-75
2023/06/28 04:50:55;;;;;;;1999.90;999.90;;;;;;;16.62;100.00;97958.00;4993253;28;20034;-74
2023/06/28 04:53:21;;;;;;;1999.90;999.90;;;;;;;16.63;100.00;97981.75;4993485;28;20037;-76
2023/06/28 04:55:47;;;;;;;1999.90;999.90;;;;;;;16.56;100.00;97976.72;4994218;28;20034;-76
2023/06/28 04:58:13;;;;;;;1999.90;999.90;;;;;;;16.49;100.00;97971.69;4993369;28;20057;-76
2023/06/28 05:00:39;;;;;;;1999.90;999.90;;;;;;;16.42;100.00;97971.41;4975751;28;20062;-75
2023/06/28 05:03:05;;;;;;;1999.90;999.90;;;;;;;16.35;100.00;97970.31;4993311;28;20113;-76
2023/06/28 05:05:30;;;;;;;1999.90;999.90;;;;;;;16.34;100.00;97960.41;4993115;28;20027;-75
2023/06/28 05:07:56;;;;;;;1999.90;999.90;;;;;;;16.28;100.00;97953.47;4992947;28;20446;-74
2023/06/28 05:10:22;;;;;;;1999.90;999.90;;;;;;;16.29;100.00;97949.56;4992921;28;20066;-74
2023/06/28 05:12:50;;;;;;;1999.90;999.90;;;;;;;16.23;100.00;97957.22;4993065;28;20034;-76
2023/06/28 05:15:16;;;;;;;1999.90;999.90;;;;;;;16.23;100.00;97973.78;4993162;28;20109;-76
2023/06/28 05:17:42;;;;;;;1999.90;999.90;;;;;;;16.21;100.00;97997.31;4993123;28;20018;-75
2023/06/28 05:20:08;;;;;;;1999.90;999.90;;;;;;;16.13;100.00;97998.19;4992867;28;20030;-78
2023/06/28 05:22:33;;;;;;;1999.90;999.90;;;;;;;16.08;100.00;98010.19;4992805;28;20026;-75
2023/06/28 05:24:58;;;;;;;1999.90;999.90;;;;;;;16.08;100.00;98016.53;4975578;28;20102;-75
2023/06/28 05:27:23;;;;;;;1999.90;999.90;;;;;;;16.11;100.00;98017.00;4993556;28;20046;-75
2023/06/28 05:29:50;;;;;;;1999.90;999.90;;;;;;;16.10;100.00;98015.41;4992124;28;20031;-75
2023/06/28 05:32:15;;;;;;;1999.90;999.90;;;;;;;16.13;100.00;98020.25;4992251;28;20026;-74
2023/06/28 05:34:41;;;;;;;1999.90;999.90;;;;;;;16.10;100.00;98030.00;4993326;28;20046;-74
2023/06/28 05:37:06;;;;;;;1999.90;999.90;;;;;;;16.10;100.00;98032.75;4992579;28;20053;-74
2023/06/28 05:39:31;;;;;;;1999.90;999.90;;;;;;;16.11;100.00;98028.84;4992694;28;20026;-74
2023/06/28 05:41:57;;;;;;;1999.90;999.90;;;;;;;16.09;100.00;98028.38;4992422;28;20027;-75
2023/06/28 05:44:22;;;;;;;1999.90;999.90;;;;;;;16.13;100.00;98039.59;4992630;28;20034;-75
2023/06/28 05:46:47;;;;;;;1999.90;999.90;;;;;;;16.12;100.00;98041.53;4992490;28;20590;-74
2023/06/28 05:49:12;;;;;;;1999.90;999.90;;;;;;;16.15;100.00;98051.91;4992298;28;20070;-73
2023/06/28 05:51:38;;;;;;;1999.90;999.90;;;;;;;15.98;100.00;98052.75;4992321;28;20109;-77
2023/06/28 05:54:04;;;;;;;1999.90;999.90;;;;;;;15.90;100.00;98072.09;4992323;28;20468;-74
2023/06/28 05:56:29;;;;;;;1999.90;999.90;;;;;;;15.60;100.00;98076.66;4980207;28;20027;-77
2023/06/28 05:58:56;;;;;;;1999.90;999.90;;;;;;;15.18;100.00;98074.66;4994221;28;20479;-76
2023/06/28 06:01:24;;;;;;;1999.90;999.90;;;;;;;15.10;100.00;98079.00;4990984;28;20120;-75
2023/06/28 06:03:50;;;;;;;1999.90;999.90;;;;;;;15.00;100.00;98074.63;4974571;28;20042;-75
2023/06/28 06:06:15;;;;;;;1999.90;999.90;;;;;;;14.93;100.00;98090.00;4992093;28;20038;-74
2023/06/28 06:08:41;;;;;;;1999.90;999.90;;;;;;;14.66;100.00;98091.03;4992142;28;20029;-75
2023/06/28 06:11:06;;;;;;;1999.90;999.90;;;;;;;14.64;100.00;98098.81;4992374;28;20030;-74
2023/06/28 06:13:31;;;;;;;1999.90;999.90;;;;;;;14.56;100.00;98098.78;4994699;28;20028;-75
2023/06/28 06:15:57;;;;;;;1999.90;999.90;;;;;;;14.40;100.00;98106.66;4976939;28;20038;-77
2023/06/28 06:18:22;;;;;;;1999.90;999.90;;;;;;;14.39;100.00;98108.59;4974829;28;20030;-75
2023/06/28 06:20:48;;;;;;;1999.90;999.90;;;;;;;14.23;100.00;98096.31;4976510;28;20039;-76
2023/06/28 06:23:14;;;;;;;1999.90;999.90;;;;;;;14.35;100.00;98099.31;4980997;28;20026;-76
2023/06/28 06:25:39;;;;;;;1999.90;999.90;;;;;;;14.43;100.00;98103.25;4992961;28;20037;-76
2023/06/28 06:28:04;;;;;;;1999.90;999.90;;;;;;;14.39;100.00;98099.50;4999419;28;20049;-75
2023/06/28 06:30:30;;;;;;;1999.90;999.90;;;;;;;14.39;100.00;98102.25;5001426;28;20109;-75
2023/06/28 06:32:55;;;;;;;1999.90;999.90;;;;;;;14.29;100.00;98085.97;4998767;28;20044;-77
2023/06/28 06:35:20;;;;;;;1999.90;999.90;;;;;;;14.47;100.00;98107.00;5001462;28;20026;-76
2023/06/28 06:37:46;;;;;;;1999.90;999.90;;;;;;;14.51;100.00;98105.22;5006782;28;20541;-76
2023/06/28 06:40:12;;;;;;;1999.90;999.90;;;;;;;14.59;100.00;98101.72;5006811;28;20060;-76
2023/06/28 06:42:38;;;;;;;1999.90;999.90;;;;;;;14.64;100.00;98090.56;5003467;28;20032;-76
2023/06/28 06:45:05;;;;;;;1999.90;999.90;;;;;;;14.71;100.00;98101.94;4994247;28;20467;-75
2023/06/28 06:47:30;;;;;;;1999.90;999.90;;;;;;;14.68;100.00;98099.81;4999877;28;20034;-76
2023/06/28 06:49:55;;;;;;;1999.90;999.90;;;;;;;14.72;100.00;98128.31;4991635;28;20045;-75
2023/06/28 06:52:20;;;;;;;1999.90;999.90;;;;;;;14.81;100.00;98137.44;4990703;28;20084;-75
2023/06/28 06:54:46;;;;;;;1999.90;999.90;;;;;;;14.91;100.00;98128.88;4990468;28;20475;-76
2023/06/28 06:57:11;;;;;;;1999.90;999.90;;;;;;;15.08;100.00;98121.78;4991041;28;20026;-76
2023/06/28 06:59:36;;;;;;;1999.90;999.90;;;;;;;15.05;100.00;98122.44;4990903;28;20053;-76
2023/06/28 07:02:02;;;;;;;1999.90;999.90;;;;;;;15.07;100.00;98125.69;4990861;28;20070;-76
2023/06/28 07:04:27;;;;;;;1999.90;999.90;;;;;;;15.14;100.00;98123.25;4991037;28;20391;-75
2023/06/28 07:06:53;;;;;;;1999.90;999.90;;;;;;;15.22;100.00;98130.75;4991244;28;20455;-75
2023/06/28 07:09:18;;;;;;;1999.90;999.90;;;;;;;15.38;100.00;98120.91;4973821;28;20492;-75
2023/06/28 07:11:45;;;;;;;1999.90;999.90;;;;;;;15.68;100.00;98131.00;4991469;28;20057;-76
2023/06/28 07:14:11;;;;;;;1999.90;999.90;;;;;;;15.99;100.00;98128.88;4991388;28;20058;-75
2023/06/28 07:16:36;;;;;;;1999.90;999.90;;;;;;;15.98;100.00;98137.47;4973873;28;20434;-74
2023/06/28 07:19:02;;;;;;;1999.90;999.90;;;;;;;16.44;100.00;98140.34;4991286;28;20064;-76
2023/06/28 07:21:28;;;;;;;1999.90;999.90;;;;;;;16.82;100.00;98140.38;4991069;28;20467;-75
2023/06/28 07:23:54;;;;;;;1999.90;999.90;;;;;;;17.13;100.00;98140.09;4991247;28;20031;-73
2023/06/28 07:26:20;;;;;;;1999.90;999.90;;;;;;;17.32;100.00;98147.97;4991111;28;20117;-74
2023/06/28 07:28:47;;;;;;;1999.90;999.90;;;;;;;17.07;100.00;98142.22;4991266;28;20626;-74
2023/06/28 07:31:12;;;;;;;1999.90;999.90;;;;;;;17.03;100.00;98119.19;4991015;28;20026;-75
2023/06/28 07:33:40;;;;;;;1999.90;999.90;;;;;;;17.39;100.00;98135.22;4991132;28;20025;-75
2023/06/28 07:36:05;;;;;;;1999.90;999.90;;;;;;;17.64;100.00;98138.97;4990841;28;20027;-76
2023/06/28 07:38:31;;;;;;;1999.90;999.90;;;;;;;18.12;100.00;98139.22;4992929;28;20057;-76
2023/06/28 07:40:56;;;;;;;1999.90;999.90;;;;;;;17.96;100.00;98131.88;4995961;28;20109;-75
2023/06/28 07:43:21;;;;;;;1999.90;999.90;;;;;;;18.09;100.00;98134.38;4992551;28;20395;-75
2023/06/28 07:45:47;;;;;;;1999.90;999.90;;;;;;;18.59;100.00;98136.19;4990878;28;20368;-75
2023/06/28 07:48:12;;;;;;;1999.90;999.90;;;;;;;18.97;100.00;98152.53;4991360;28;20030;-76
2023/06/28 07:50:38;;;;;;;1999.90;999.90;;;;;;;18.99;100.00;98153.78;4990898;28;20475;-75
2023/06/28 07:53:04;;;;;;;1999.90;999.90;;;;;;;19.16;100.00;98148.03;4990793;28;20041;-75
2023/06/28 07:55:30;;;;;;;1999.90;999.90;;;;;;;19.00;100.00;98147.09;4993592;28;20165;-74
2023/06/28 07:57:56;;;;;;;1999.90;999.90;;;;;;;19.16;100.00;98148.03;4994715;28;20109;-75
2023/06/28 08:00:21;;;;;;;1999.90;999.90;;;;;;;18.59;100.00;98152.81;4994849;28;20117;-75
2023/06/28 08:02:48;;;;;;;1999.90;999.90;;;;;;;18.47;100.00;98144.44;5006630;28;20112;-75
2023/06/28 08:05:13;;;;;;;1999.90;999.90;;;;;;;18.16;100.00;98155.97;5006218;28;20027;-75
2023/06/28 08:07:39;;;;;;;1999.90;999.90;;;;;;;18.20;100.00;98137.50;4993454;28;20042;-74
2023/06/28 08:10:04;;;;;;;1999.90;999.90;;;;;;;18.27;100.00;98139.72;4993552;28;20061;-73
2023/06/28 08:12:30;;;;;;;1999.90;999.90;;;;;;;17.94;100.00;98142.50;5004199;28;20089;-73
2023/06/28 08:14:55;;;;;;;1999.90;999.90;;;;;;;18.26;100.00;98138.13;4994455;28;20026;-74
2023/06/28 08:17:20;;;;;;;1999.90;999.90;;;;;;;18.87;100.00;98125.25;5011629;28;20033;-74
2023/06/28 08:19:46;;;;;;;1999.90;999.90;;;;;;;19.90;100.00;98135.69;4997723;28;20050;-73
2023/06/28 08:22:18;;;;;;;1999.90;999.90;;;;;;;20.83;100.00;98128.78;4993904;28;20023;-76
2023/06/28 08:24:44;;;;;;;1999.90;999.90;;;;;;;21.28;100.00;98140.28;5002302;28;20526;-74
2023/06/28 08:27:09;;;;;;;1999.90;999.90;;;;;;;21.09;100.00;98140.19;4996549;28;20066;-75
2023/06/28 08:29:34;;;;;;;1999.90;999.90;;;;;;;21.44;100.00;98128.31;5003682;28;20116;-75
2023/06/28 08:32:00;;;;;;;1999.90;999.90;;;;;;;23.40;100.00;98133.44;5003659;28;20026;-75
2023/06/28 08:34:25;;;;;;;1999.90;999.90;;;;;;;25.07;69.79;98141.97;4993695;28;20399;-74
2023/06/28 08:36:50;;;;;;;1999.90;999.90;;;;;;;26.14;63.89;98144.38;5002523;28;20149;-76
2023/06/28 08:39:16;;;;;;;1999.90;999.90;;;;;;;28.27;55.91;98156.66;4993734;28;20034;-74
2023/06/28 08:41:43;;;;;;;1999.90;999.90;;;;;;;27.91;55.51;98155.94;4993331;28;20034;-75
2023/06/28 08:44:12;;;;;;;1999.90;999.90;;;;;;;27.14;54.12;98149.13;4993952;28;20018;-76
2023/06/28 08:46:42;;;;;;;1999.90;999.90;;;;;;;25.68;60.96;98141.31;4997388;28;20022;-77
2023/06/28 08:49:08;;;;;;;1999.90;999.90;;;;;;;26.01;56.77;98146.72;4993652;28;20030;-75
2023/06/28 08:51:33;;;;;;;1999.90;999.90;;;;;;;26.23;59.82;98142.03;4993211;28;20703;-75
2023/06/28 08:53:59;;;;;;;1999.90;999.90;;;;;;;26.14;57.88;98146.38;4993321;28;20084;-73
2023/06/28 08:56:26;;;;;;;1999.90;999.90;;;;;;;26.83;55.53;98141.47;4993684;28;20046;-74
2023/06/28 08:58:53;;;;;;;1999.90;999.90;;;;;;;26.85;54.46;98147.47;4997882;28;20038;-80
2023/06/28 09:01:22;;;;;;;1999.90;999.90;;;;;;;27.31;50.05;98155.97;5004814;28;20034;-77
2023/06/28 09:03:47;;;;;;;1999.90;999.90;;;;;;;25.72;50.74;98146.94;4994206;28;20034;-78
2023/06/28 09:06:13;;;;;;;1999.90;999.90;;;;;;;25.11;52.22;98148.44;4979010;28;20041;-75
2023/06/28 09:08:39;;;;;;;1999.90;999.90;;;;;;;25.99;50.30;98134.28;4999880;28;20033;-75
2023/06/28 09:11:05;;;;;;;1999.90;999.90;;;;;;;27.40;48.69;98137.50;4997466;28;20043;-79
2023/06/28 09:13:30;;;;;;;1999.90;999.90;;;;;;;28.02;44.35;98139.84;4993789;28;20073;-80
2023/06/28 09:15:56;;;;;;;1999.90;999.90;;;;;;;28.81;43.96;98143.97;4993036;28;20487;-80
2023/06/28 09:18:22;;;;;;;1999.90;999.90;;;;;;;27.12;45.77;98134.69;4993696;28;20073;-79
2023/06/28 09:20:53;;;;;;;1999.90;999.90;;;;;;;27.11;46.69;98124.66;4992902;28;20030;-79
2023/06/28 09:23:23;;;;;;;1999.90;999.90;;;;;;;26.79;49.14;98123.75;4976536;28;20027;-79
2023/06/28 09:25:50;;;;;;;1999.90;999.90;;;;;;;26.87;49.07;98114.19;4999204;28;20038;-75
2023/06/28 09:28:16;;;;;;;1999.90;999.90;;;;;;;26.67;49.52;98115.72;4993106;28;20022;-78
2023/06/28 09:30:41;;;;;;;1999.90;999.90;;;;;;;27.84;46.97;98110.97;4992463;28;20089;-78
2023/06/28 09:33:07;;;;;;;1999.90;999.90;;;;;;;28.83;45.79;98105.72;4988547;28;20427;-80
2023/06/28 09:35:36;;;;;;;1999.90;999.90;;;;;;;28.08;44.09;98093.22;4995523;28;20557;-78
2023/06/28 09:38:06;;;;;;;1999.90;999.90;;;;;;;25.83;48.79;98100.16;4989682;28;20061;-78
2023/06/28 09:40:35;;;;;;;1999.90;999.90;;;;;;;25.88;49.60;98091.34;4991334;28;20498;-80
2023/06/28 09:43:01;;;;;;;1999.90;999.90;;;;;;;26.41;47.05;98106.44;4991745;28;20030;-81
2023/06/28 09:45:33;;;;;;;1999.90;999.90;;;;;;;27.04;45.16;98107.78;4993532;28;20084;-79
2023/06/28 09:48:02;;;;;;;1999.90;999.90;;;;;;;26.22;48.36;98105.97;4993015;28;20034;-78
2023/06/28 09:50:36;;;;;;;1999.90;999.90;;;;;;;28.36;42.85;98114.81;4991691;28;20029;-79
2023/06/28 09:53:02;;;;;;;1999.90;999.90;;;;;;;29.02;42.06;98104.38;4991301;28;20037;-82
2023/06/28 09:55:28;;;;;;;1999.90;999.90;;;;;;;29.02;43.51;98099.56;4998583;28;20086;-81
2023/06/28 09:57:54;;;;;;;1999.90;999.90;;;;;;;29.06;43.54;98099.53;4977189;28;20442;-81
2023/06/28 10:00:20;;;;;;;1999.90;999.90;;;;;;;29.16;42.17;98102.25;4999165;28;20014;-80
2023/06/28 10:02:48;;;;;;;1999.90;999.90;;;;;;;28.83;42.94;98096.47;4991218;28;20026;-78
2023/06/28 10:05:14;;;;;;;1999.90;999.90;;;;;;;29.42;41.50;98102.88;4999897;28;20027;-78
2023/06/28 10:07:42;;;;;;;1999.90;999.90;;;;;;;29.03;41.17;98103.97;5007722;28;20371;-77
2023/06/28 10:10:08;;;;;;;1999.90;999.90;;;;;;;29.23;40.60;98090.91;4996744;28;20035;-77
2023/06/28 10:12:35;;;;;;;1999.90;999.90;;;;;;;28.14;43.00;98092.41;5000596;28;20034;-77
2023/06/28 10:15:06;;;;;;;1999.90;999.90;;;;;;;27.91;42.44;98089.22;4993013;28;20033;-76
2023/06/28 10:17:33;;;;;;;1999.90;999.90;;;;;;;26.29;45.25;98081.53;4994073;28;20076;-75
2023/06/28 10:20:00;;;;;;;1999.90;999.90;;;;;;;24.62;51.93;98072.34;4991721;28;20019;-74
2023/06/28 10:22:26;;;;;;;1999.90;999.90;;;;;;;24.33;53.48;98077.66;4991622;28;20030;-76
2023/06/28 10:24:53;;;;;;;1999.90;999.90;;;;;;;22.82;56.20;98062.31;4991517;28;20483;-75
2023/06/28 10:27:19;;;;;;;1999.90;999.90;;;;;;;23.75;54.04;98070.91;4993076;28;20026;-83
2023/06/28 10:29:48;;;;;;;1999.90;999.90;;;;;;;23.89;54.59;98068.31;5002374;28;20403;-80
2023/06/28 10:32:14;;;;;;;1999.90;999.90;;;;;;;24.26;54.17;98065.56;4971312;28;20105;-83
2023/06/28 10:34:42;;;;;;;1999.90;999.90;;;;;;;23.53;53.41;98055.84;4993287;28;20066;-79
2023/06/28 10:37:08;;;;;;;1999.90;999.90;;;;;;;23.52;55.18;98059.03;4996284;28;20061;-79
2023/06/28 10:39:37;;;;;;;1999.90;999.90;;;;;;;23.22;55.51;98059.75;4992856;28;20034;-79
2023/06/28 10:42:03;;;;;;;1999.90;999.90;;;;;;;23.31;54.26;98057.50;4991795;28;20121;-78